sensor_id;sensor_type;location;lat;lon;timestamp;P1;P2;P0
55549;PMS7003;41397;49.972;18.944;2023-05-19T00:01:13;8;8;5
55549;PMS7003;41397;49.972;18.944;2023-05-19T00:04:17;12;12;8
55549;PMS7003;41397;49.972;18.944;2023-05-19T00:07:19;12;12;10
55549;PMS7003;41397;49.972;18.944;2023-05-19T00:10:28;12;11;6
55549;PMS7003;41397;49.972;18.944;2023-05-19T00:13:37;9;9;5
55549;PMS7003;41397;49.972;18.944;2023-05-19T00:16:39;11;11;7
55549;PMS7003;41397;49.972;18.944;2023-05-19T00:19:42;16;16;12
55549;PMS7003;41397;49.972;18.944;2023-05-19T00:22:44;10;10;8
55549;PMS7003;41397;49.972;18.944;2023-05-19T00:25:46;20;13;9
55549;PMS7003;41397;49.972;18.944;2023-05-19T00:28:48;12;12;9
55549;PMS7003;41397;49.972;18.944;2023-05-19T00:31:49;14;14;9
55549;PMS7003;41397;49.972;18.944;2023-05-19T00:34:50;12;12;9
55549;PMS7003;41397;49.972;18.944;2023-05-19T00:37:53;18;18;12
55549;PMS7003;41397;49.972;18.944;2023-05-19T00:40:55;14;14;8
55549;PMS7003;41397;49.972;18.944;2023-05-19T00:43:56;17;17;13
55549;PMS7003;41397;49.972;18.944;2023-05-19T00:46:58;14;14;13
55549;PMS7003;41397;49.972;18.944;2023-05-19T00:50:01;14;14;11
55549;PMS7003;41397;49.972;18.944;2023-05-19T00:53:02;11;11;9
55549;PMS7003;41397;49.972;18.944;2023-05-19T00:56:04;13;13;10
55549;PMS7003;41397;49.972;18.944;2023-05-19T00:59:05;14;14;11
55549;PMS7003;41397;49.972;18.944;2023-05-19T01:02:09;12;12;9
55549;PMS7003;41397;49.972;18.944;2023-05-19T01:05:11;10;10;8
55549;PMS7003;41397;49.972;18.944;2023-05-19T01:08:13;11;11;9
55549;PMS7003;41397;49.972;18.944;2023-05-19T01:11:14;9;9;7
55549;PMS7003;41397;49.972;18.944;2023-05-19T01:14:17;17;14;9
55549;PMS7003;41397;49.972;18.944;2023-05-19T01:17:22;11;11;7
55549;PMS7003;41397;49.972;18.944;2023-05-19T01:20:34;14;14;9
55549;PMS7003;41397;49.972;18.944;2023-05-19T01:23:46;11;11;8
55549;PMS7003;41397;49.972;18.944;2023-05-19T01:33:26;11;11;8
55549;PMS7003;41397;49.972;18.944;2023-05-19T01:36:29;10;10;7
55549;PMS7003;41397;49.972;18.944;2023-05-19T01:39:32;13;13;9
55549;PMS7003;41397;49.972;18.944;2023-05-19T01:42:33;11;11;9
55549;PMS7003;41397;49.972;18.944;2023-05-19T01:45:39;12;12;8
55549;PMS7003;41397;49.972;18.944;2023-05-19T01:48:42;10;10;8
55549;PMS7003;41397;49.972;18.944;2023-05-19T01:51:45;11;11;9
55549;PMS7003;41397;49.972;18.944;2023-05-19T01:54:49;13;12;10
55549;PMS7003;41397;49.972;18.944;2023-05-19T02:10:49;12;12;8
55549;PMS7003;41397;49.972;18.944;2023-05-19T02:14:00;7;7;5
55549;PMS7003;41397;49.972;18.944;2023-05-19T02:17:05;9;9;7
55549;PMS7003;41397;49.972;18.944;2023-05-19T02:20:09;8;8;6
55549;PMS7003;41397;49.972;18.944;2023-05-19T02:23:11;8;8;7
55549;PMS7003;41397;49.972;18.944;2023-05-19T02:26:12;14;14;7
55549;PMS7003;41397;49.972;18.944;2023-05-19T02:29:14;8;8;7
55549;PMS7003;41397;49.972;18.944;2023-05-19T02:32:16;11;11;8
55549;PMS7003;41397;49.972;18.944;2023-05-19T02:35:17;9;9;6
55549;PMS7003;41397;49.972;18.944;2023-05-19T02:38:19;6;6;4
55549;PMS7003;41397;49.972;18.944;2023-05-19T02:41:21;6;6;6
55549;PMS7003;41397;49.972;18.944;2023-05-19T02:44:22;10;10;6
55549;PMS7003;41397;49.972;18.944;2023-05-19T02:47:24;7;7;4
55549;PMS7003;41397;49.972;18.944;2023-05-19T02:50:25;7;7;5
55549;PMS7003;41397;49.972;18.944;2023-05-19T02:53:26;9;9;6
55549;PMS7003;41397;49.972;18.944;2023-05-19T02:56:28;6;6;5
55549;PMS7003;41397;49.972;18.944;2023-05-19T02:59:29;11;11;10
55549;PMS7003;41397;49.972;18.944;2023-05-19T03:02:31;12;12;7
55549;PMS7003;41397;49.972;18.944;2023-05-19T03:05:34;11;11;7
55549;PMS7003;41397;49.972;18.944;2023-05-19T03:08:36;5;5;4
55549;PMS7003;41397;49.972;18.944;2023-05-19T03:11:37;7;7;3
55549;PMS7003;41397;49.972;18.944;2023-05-19T03:14:39;10;10;8
55549;PMS7003;41397;49.972;18.944;2023-05-19T03:17:40;5;5;4
55549;PMS7003;41397;49.972;18.944;2023-05-19T03:20:42;7;7;6
55549;PMS7003;41397;49.972;18.944;2023-05-19T03:23:44;8;8;5
55549;PMS7003;41397;49.972;18.944;2023-05-19T03:26:47;10;10;7
55549;PMS7003;41397;49.972;18.944;2023-05-19T03:29:48;6;6;5
55549;PMS7003;41397;49.972;18.944;2023-05-19T03:32:52;8;8;7
55549;PMS7003;41397;49.972;18.944;2023-05-19T03:35:53;8;8;7
55549;PMS7003;41397;49.972;18.944;2023-05-19T03:38:55;7;7;5
55549;PMS7003;41397;49.972;18.944;2023-05-19T03:41:57;7;7;5
55549;PMS7003;41397;49.972;18.944;2023-05-19T03:44:58;11;11;7
55549;PMS7003;41397;49.972;18.944;2023-05-19T03:48:00;10;10;7
55549;PMS7003;41397;49.972;18.944;2023-05-19T03:51:09;13;13;10
55549;PMS7003;41397;49.972;18.944;2023-05-19T03:54:29;13;13;9
55549;PMS7003;41397;49.972;18.944;2023-05-19T03:57:31;9;9;7
55549;PMS7003;41397;49.972;18.944;2023-05-19T04:04:04;12;12;8
55549;PMS7003;41397;49.972;18.944;2023-05-19T04:07:05;14;14;9
55549;PMS7003;41397;49.972;18.944;2023-05-19T04:10:07;10;10;3
55549;PMS7003;41397;49.972;18.944;2023-05-19T04:13:09;17;17;11
55549;PMS7003;41397;49.972;18.944;2023-05-19T04:16:11;20;20;12
55549;PMS7003;41397;49.972;18.944;2023-05-19T04:19:12;13;13;9
55549;PMS7003;41397;49.972;18.944;2023-05-19T04:22:14;13;13;11
55549;PMS7003;41397;49.972;18.944;2023-05-19T04:25:15;15;15;12
55549;PMS7003;41397;49.972;18.944;2023-05-19T04:28:16;6;6;4
55549;PMS7003;41397;49.972;18.944;2023-05-19T04:31:18;11;11;9
55549;PMS7003;41397;49.972;18.944;2023-05-19T04:34:21;11;11;9
55549;PMS7003;41397;49.972;18.944;2023-05-19T04:40:48;7;7;6
55549;PMS7003;41397;49.972;18.944;2023-05-19T04:43:54;12;8;7
55549;PMS7003;41397;49.972;18.944;2023-05-19T04:46:57;12;9;4
55549;PMS7003;41397;49.972;18.944;2023-05-19T04:53:24;10;10;8
55549;PMS7003;41397;49.972;18.944;2023-05-19T04:59:52;9;9;8
55549;PMS7003;41397;49.972;18.944;2023-05-19T05:02:59;11;10;8
55549;PMS7003;41397;49.972;18.944;2023-05-19T05:23:01;10;10;8
55549;PMS7003;41397;49.972;18.944;2023-05-19T05:26:06;7;7;5
55549;PMS7003;41397;49.972;18.944;2023-05-19T05:29:14;19;12;7
55549;PMS7003;41397;49.972;18.944;2023-05-19T05:32:16;9;9;8
55549;PMS7003;41397;49.972;18.944;2023-05-19T05:35:18;10;10;8
55549;PMS7003;41397;49.972;18.944;2023-05-19T05:38:23;7;7;7
55549;PMS7003;41397;49.972;18.944;2023-05-19T05:41:25;9;9;8
55549;PMS7003;41397;49.972;18.944;2023-05-19T05:44:29;9;9;7
55549;PMS7003;41397;49.972;18.944;2023-05-19T05:47:31;19;14;10
55549;PMS7003;41397;49.972;18.944;2023-05-19T05:50:33;11;11;7
55549;PMS7003;41397;49.972;18.944;2023-05-19T05:53:36;8;8;6
55549;PMS7003;41397;49.972;18.944;2023-05-19T05:56:44;10;10;8
55549;PMS7003;41397;49.972;18.944;2023-05-19T05:59:50;10;10;8
55549;PMS7003;41397;49.972;18.944;2023-05-19T06:02:51;5;5;5
55549;PMS7003;41397;49.972;18.944;2023-05-19T06:05:52;8;8;7
55549;PMS7003;41397;49.972;18.944;2023-05-19T06:08:54;8;8;8
55549;PMS7003;41397;49.972;18.944;2023-05-19T06:15:29;6;6;5
55549;PMS7003;41397;49.972;18.944;2023-05-19T06:18:35;5;5;4
55549;PMS7003;41397;49.972;18.944;2023-05-19T06:21:36;7;6;5
55549;PMS7003;41397;49.972;18.944;2023-05-19T06:24:38;7;7;5
55549;PMS7003;41397;49.972;18.944;2023-05-19T06:27:40;11;11;9
55549;PMS7003;41397;49.972;18.944;2023-05-19T06:30:42;9;9;6
55549;PMS7003;41397;49.972;18.944;2023-05-19T06:33:44;1;1;1
55549;PMS7003;41397;49.972;18.944;2023-05-19T06:36:45;10;10;6
55549;PMS7003;41397;49.972;18.944;2023-05-19T06:46:09;5;5;4
55549;PMS7003;41397;49.972;18.944;2023-05-19T06:49:12;7;7;6
55549;PMS7003;41397;49.972;18.944;2023-05-19T06:52:14;8;8;7
55549;PMS7003;41397;49.972;18.944;2023-05-19T06:55:15;11;10;8
55549;PMS7003;41397;49.972;18.944;2023-05-19T06:58:17;11;11;8
55549;PMS7003;41397;49.972;18.944;2023-05-19T07:01:18;5;5;5
55549;PMS7003;41397;49.972;18.944;2023-05-19T07:04:20;9;9;6
55549;PMS7003;41397;49.972;18.944;2023-05-19T07:07:22;12;12;8
55549;PMS7003;41397;49.972;18.944;2023-05-19T07:10:25;9;9;6
55549;PMS7003;41397;49.972;18.944;2023-05-19T07:13:35;9;9;9
55549;PMS7003;41397;49.972;18.944;2023-05-19T07:16:36;9;9;7
55549;PMS7003;41397;49.972;18.944;2023-05-19T07:19:38;11;8;7
55549;PMS7003;41397;49.972;18.944;2023-05-19T07:22:42;6;6;6
55549;PMS7003;41397;49.972;18.944;2023-05-19T07:25:44;11;11;6
55549;PMS7003;41397;49.972;18.944;2023-05-19T07:28:45;5;5;5
55549;PMS7003;41397;49.972;18.944;2023-05-19T07:31:47;7;7;6
55549;PMS7003;41397;49.972;18.944;2023-05-19T07:34:53;7;7;6
55549;PMS7003;41397;49.972;18.944;2023-05-19T07:37:59;4;4;3
55549;PMS7003;41397;49.972;18.944;2023-05-19T07:41:02;6;6;4
55549;PMS7003;41397;49.972;18.944;2023-05-19T07:44:03;6;6;5
55549;PMS7003;41397;49.972;18.944;2023-05-19T07:47:07;6;6;5
55549;PMS7003;41397;49.972;18.944;2023-05-19T07:53:29;6;6;5
55549;PMS7003;41397;49.972;18.944;2023-05-19T07:56:31;8;8;7
55549;PMS7003;41397;49.972;18.944;2023-05-19T07:59:33;9;9;6
55549;PMS7003;41397;49.972;18.944;2023-05-19T08:02:35;6;6;5
55549;PMS7003;41397;49.972;18.944;2023-05-19T08:05:36;5;5;5
55549;PMS7003;41397;49.972;18.944;2023-05-19T08:08:37;10;10;8
55549;PMS7003;41397;49.972;18.944;2023-05-19T08:11:39;4;4;3
55549;PMS7003;41397;49.972;18.944;2023-05-19T08:14:40;5;5;5
55549;PMS7003;41397;49.972;18.944;2023-05-19T08:17:42;7;7;5
55549;PMS7003;41397;49.972;18.944;2023-05-19T08:20:43;6;5;3
55549;PMS7003;41397;49.972;18.944;2023-05-19T08:23:45;7;7;5
55549;PMS7003;41397;49.972;18.944;2023-05-19T08:26:47;3;3;3
55549;PMS7003;41397;49.972;18.944;2023-05-19T08:29:49;13;9;8
55549;PMS7003;41397;49.972;18.944;2023-05-19T08:32:51;11;11;7
55549;PMS7003;41397;49.972;18.944;2023-05-19T08:35:52;6;6;4
55549;PMS7003;41397;49.972;18.944;2023-05-19T08:38:59;8;8;7
55549;PMS7003;41397;49.972;18.944;2023-05-19T08:42:01;8;8;7
55549;PMS7003;41397;49.972;18.944;2023-05-19T08:45:03;9;9;5
55549;PMS7003;41397;49.972;18.944;2023-05-19T08:48:05;11;11;9
55549;PMS7003;41397;49.972;18.944;2023-05-19T08:51:13;8;8;5
55549;PMS7003;41397;49.972;18.944;2023-05-19T08:54:20;14;14;9
55549;PMS7003;41397;49.972;18.944;2023-05-19T08:57:28;9;9;8
55549;PMS7003;41397;49.972;18.944;2023-05-19T09:00:30;11;11;8
55549;PMS7003;41397;49.972;18.944;2023-05-19T09:03:33;11;11;8
55549;PMS7003;41397;49.972;18.944;2023-05-19T09:06:38;10;10;7
55549;PMS7003;41397;49.972;18.944;2023-05-19T09:09:44;8;8;6
55549;PMS7003;41397;49.972;18.944;2023-05-19T09:12:50;10;10;7
55549;PMS7003;41397;49.972;18.944;2023-05-19T09:15:53;10;10;7
55549;PMS7003;41397;49.972;18.944;2023-05-19T09:18:57;10;10;8
55549;PMS7003;41397;49.972;18.944;2023-05-19T09:22:00;16;16;10
55549;PMS7003;41397;49.972;18.944;2023-05-19T09:25:16;9;9;7
55549;PMS7003;41397;49.972;18.944;2023-05-19T09:28:23;9;9;7
55549;PMS7003;41397;49.972;18.944;2023-05-19T09:31:35;16;16;11
55549;PMS7003;41397;49.972;18.944;2023-05-19T09:34:39;14;14;11
55549;PMS7003;41397;49.972;18.944;2023-05-19T09:37:42;11;11;10
55549;PMS7003;41397;49.972;18.944;2023-05-19T09:40:43;15;13;11
55549;PMS7003;41397;49.972;18.944;2023-05-19T09:43:47;10;10;9
55549;PMS7003;41397;49.972;18.944;2023-05-19T09:47:02;7;7;6
55549;PMS7003;41397;49.972;18.944;2023-05-19T09:50:07;13;13;11
55549;PMS7003;41397;49.972;18.944;2023-05-19T09:53:11;20;17;11
55549;PMS7003;41397;49.972;18.944;2023-05-19T09:56:14;9;9;8
55549;PMS7003;41397;49.972;18.944;2023-05-19T09:59:16;13;13;11
55549;PMS7003;41397;49.972;18.944;2023-05-19T10:02:19;10;10;8
55549;PMS7003;41397;49.972;18.944;2023-05-19T10:05:25;11;7;5
55549;PMS7003;41397;49.972;18.944;2023-05-19T10:08:49;11;11;8
55549;PMS7003;41397;49.972;18.944;2023-05-19T10:11:54;7;7;6
55549;PMS7003;41397;49.972;18.944;2023-05-19T10:14:57;14;14;11
55549;PMS7003;41397;49.972;18.944;2023-05-19T10:18:03;7;7;7
55549;PMS7003;41397;49.972;18.944;2023-05-19T10:21:07;9;9;7
55549;PMS7003;41397;49.972;18.944;2023-05-19T10:24:09;9;9;8
55549;PMS7003;41397;49.972;18.944;2023-05-19T10:27:11;11;11;10
55549;PMS7003;41397;49.972;18.944;2023-05-19T10:30:15;12;12;9
55549;PMS7003;41397;49.972;18.944;2023-05-19T10:33:20;10;10;8
55549;PMS7003;41397;49.972;18.944;2023-05-19T10:39:45;8;8;6
55549;PMS7003;41397;49.972;18.944;2023-05-19T10:46:06;10;10;7
55549;PMS7003;41397;49.972;18.944;2023-05-19T10:49:08;8;8;5
55549;PMS7003;41397;49.972;18.944;2023-05-19T11:01:50;10;10;7
55549;PMS7003;41397;49.972;18.944;2023-05-19T11:04:51;16;14;11
55549;PMS7003;41397;49.972;18.944;2023-05-19T11:08:01;12;12;7
55549;PMS7003;41397;49.972;18.944;2023-05-19T11:11:11;15;15;10
55549;PMS7003;41397;49.972;18.944;2023-05-19T11:14:14;14;14;9
55549;PMS7003;41397;49.972;18.944;2023-05-19T11:17:18;11;11;9
55549;PMS7003;41397;49.972;18.944;2023-05-19T11:20:24;11;11;9
55549;PMS7003;41397;49.972;18.944;2023-05-19T11:23:36;15;15;12
55549;PMS7003;41397;49.972;18.944;2023-05-19T11:26:39;11;11;11
55549;PMS7003;41397;49.972;18.944;2023-05-19T11:29:43;9;9;8
55549;PMS7003;41397;49.972;18.944;2023-05-19T11:32:46;12;12;8
55549;PMS7003;41397;49.972;18.944;2023-05-19T11:35:49;14;14;8
55549;PMS7003;41397;49.972;18.944;2023-05-19T11:38:51;10;10;9
55549;PMS7003;41397;49.972;18.944;2023-05-19T11:41:54;13;13;9
55549;PMS7003;41397;49.972;18.944;2023-05-19T11:45:11;9;9;9
55549;PMS7003;41397;49.972;18.944;2023-05-19T11:48:12;7;7;6
55549;PMS7003;41397;49.972;18.944;2023-05-19T11:51:19;14;14;11
55549;PMS7003;41397;49.972;18.944;2023-05-19T11:54:28;13;13;9
55549;PMS7003;41397;49.972;18.944;2023-05-19T11:57:32;9;9;8
55549;PMS7003;41397;49.972;18.944;2023-05-19T12:00:34;9;9;6
55549;PMS7003;41397;49.972;18.944;2023-05-19T12:03:39;10;9;6
55549;PMS7003;41397;49.972;18.944;2023-05-19T12:06:41;11;11;9
55549;PMS7003;41397;49.972;18.944;2023-05-19T12:09:45;19;17;13
55549;PMS7003;41397;49.972;18.944;2023-05-19T12:12:47;9;9;8
55549;PMS7003;41397;49.972;18.944;2023-05-19T12:15:51;9;9;6
55549;PMS7003;41397;49.972;18.944;2023-05-19T12:18:54;17;17;10
55549;PMS7003;41397;49.972;18.944;2023-05-19T12:22:01;10;10;7
55549;PMS7003;41397;49.972;18.944;2023-05-19T12:25:03;16;16;12
55549;PMS7003;41397;49.972;18.944;2023-05-19T12:28:05;13;13;9
55549;PMS7003;41397;49.972;18.944;2023-05-19T12:31:07;11;11;11
55549;PMS7003;41397;49.972;18.944;2023-05-19T12:34:11;12;12;10
55549;PMS7003;41397;49.972;18.944;2023-05-19T12:37:12;11;11;8
55549;PMS7003;41397;49.972;18.944;2023-05-19T12:40:15;14;14;12
55549;PMS7003;41397;49.972;18.944;2023-05-19T12:43:22;15;12;8
55549;PMS7003;41397;49.972;18.944;2023-05-19T12:46:24;14;14;10
55549;PMS7003;41397;49.972;18.944;2023-05-19T12:49:26;7;7;6
55549;PMS7003;41397;49.972;18.944;2023-05-19T12:52:28;12;12;9
55549;PMS7003;41397;49.972;18.944;2023-05-19T12:58:43;12;12;10
55549;PMS7003;41397;49.972;18.944;2023-05-19T13:08:42;12;11;8
55549;PMS7003;41397;49.972;18.944;2023-05-19T13:11:59;14;14;9
55549;PMS7003;41397;49.972;18.944;2023-05-19T13:18:44;15;15;12
55549;PMS7003;41397;49.972;18.944;2023-05-19T13:21:55;12;12;10
55549;PMS7003;41397;49.972;18.944;2023-05-19T13:25:00;12;12;7
55549;PMS7003;41397;49.972;18.944;2023-05-19T13:28:11;8;8;7
55549;PMS7003;41397;49.972;18.944;2023-05-19T13:31:30;11;11;8
55549;PMS7003;41397;49.972;18.944;2023-05-19T13:34:32;10;10;10
55549;PMS7003;41397;49.972;18.944;2023-05-19T13:37:34;16;16;8
55549;PMS7003;41397;49.972;18.944;2023-05-19T13:40:46;13;13;8
55549;PMS7003;41397;49.972;18.944;2023-05-19T13:43:50;15;15;11
55549;PMS7003;41397;49.972;18.944;2023-05-19T13:46:56;16;16;11
55549;PMS7003;41397;49.972;18.944;2023-05-19T13:49:58;12;12;10
55549;PMS7003;41397;49.972;18.944;2023-05-19T13:52:59;15;15;10
55549;PMS7003;41397;49.972;18.944;2023-05-19T13:56:01;14;14;9
55549;PMS7003;41397;49.972;18.944;2023-05-19T13:59:04;14;14;10
55549;PMS7003;41397;49.972;18.944;2023-05-19T14:02:06;16;16;10
55549;PMS7003;41397;49.972;18.944;2023-05-19T14:05:09;15;15;11
55549;PMS7003;41397;49.972;18.944;2023-05-19T14:08:11;19;19;11
55549;PMS7003;41397;49.972;18.944;2023-05-19T14:11:17;19;19;12
55549;PMS7003;41397;49.972;18.944;2023-05-19T14:14:22;15;15;12
55549;PMS7003;41397;49.972;18.944;2023-05-19T14:17:27;17;17;13
55549;PMS7003;41397;49.972;18.944;2023-05-19T14:20:32;18;18;14
55549;PMS7003;41397;49.972;18.944;2023-05-19T14:23:34;11;11;9
55549;PMS7003;41397;49.972;18.944;2023-05-19T14:29:50;8;8;6
55549;PMS7003;41397;49.972;18.944;2023-05-19T14:32:52;13;13;9
55549;PMS7003;41397;49.972;18.944;2023-05-19T14:35:53;15;15;11
55549;PMS7003;41397;49.972;18.944;2023-05-19T14:38:59;19;19;13
55549;PMS7003;41397;49.972;18.944;2023-05-19T14:42:01;15;15;10
55549;PMS7003;41397;49.972;18.944;2023-05-19T14:45:03;19;19;14
55549;PMS7003;41397;49.972;18.944;2023-05-19T14:48:05;16;16;10
55549;PMS7003;41397;49.972;18.944;2023-05-19T14:51:10;13;13;9
55549;PMS7003;41397;49.972;18.944;2023-05-19T14:54:17;17;17;13
55549;PMS7003;41397;49.972;18.944;2023-05-19T14:57:18;17;17;12
55549;PMS7003;41397;49.972;18.944;2023-05-19T15:00:21;10;10;8
55549;PMS7003;41397;49.972;18.944;2023-05-19T15:06:59;14;14;11
55549;PMS7003;41397;49.972;18.944;2023-05-19T15:10:01;15;15;9
55549;PMS7003;41397;49.972;18.944;2023-05-19T15:13:06;18;18;14
55549;PMS7003;41397;49.972;18.944;2023-05-19T15:16:08;13;13;10
55549;PMS7003;41397;49.972;18.944;2023-05-19T15:19:10;17;17;12
55549;PMS7003;41397;49.972;18.944;2023-05-19T15:22:11;14;14;9
55549;PMS7003;41397;49.972;18.944;2023-05-19T15:25:14;20;20;16
55549;PMS7003;41397;49.972;18.944;2023-05-19T15:28:15;20;20;14
55549;PMS7003;41397;49.972;18.944;2023-05-19T15:31:17;16;16;13
55549;PMS7003;41397;49.972;18.944;2023-05-19T15:34:19;19;19;14
55549;PMS7003;41397;49.972;18.944;2023-05-19T15:44:00;11;11;7
55549;PMS7003;41397;49.972;18.944;2023-05-19T15:47:07;15;15;14
55549;PMS7003;41397;49.972;18.944;2023-05-19T15:50:14;13;13;10
55549;PMS7003;41397;49.972;18.944;2023-05-19T15:53:42;16;16;12
55549;PMS7003;41397;49.972;18.944;2023-05-19T15:56:44;18;18;10
55549;PMS7003;41397;49.972;18.944;2023-05-19T15:59:51;13;13;12
55549;PMS7003;41397;49.972;18.944;2023-05-19T16:02:54;14;14;11
55549;PMS7003;41397;49.972;18.944;2023-05-19T16:06:03;17;16;11
55549;PMS7003;41397;49.972;18.944;2023-05-19T16:12:41;15;15;13
55549;PMS7003;41397;49.972;18.944;2023-05-19T16:15:45;16;16;11
55549;PMS7003;41397;49.972;18.944;2023-05-19T16:25:55;15;15;13
55549;PMS7003;41397;49.972;18.944;2023-05-19T16:32:41;16;16;11
55549;PMS7003;41397;49.972;18.944;2023-05-19T16:35:44;15;15;13
55549;PMS7003;41397;49.972;18.944;2023-05-19T16:43:12;15;15;11
55549;PMS7003;41397;49.972;18.944;2023-05-19T16:49:52;17;17;13
55549;PMS7003;41397;49.972;18.944;2023-05-19T16:52:56;12;12;8
55549;PMS7003;41397;49.972;18.944;2023-05-19T16:55:58;25;24;17
55549;PMS7003;41397;49.972;18.944;2023-05-19T17:02:12;19;19;14
55549;PMS7003;41397;49.972;18.944;2023-05-19T17:12:40;12;12;10
55549;PMS7003;41397;49.972;18.944;2023-05-19T17:15:57;18;18;13
55549;PMS7003;41397;49.972;18.944;2023-05-19T17:26:21;21;21;13
55549;PMS7003;41397;49.972;18.944;2023-05-19T17:29:23;15;15;12
55549;PMS7003;41397;49.972;18.944;2023-05-19T17:32:27;21;21;15
55549;PMS7003;41397;49.972;18.944;2023-05-19T17:35:37;21;21;14
55549;PMS7003;41397;49.972;18.944;2023-05-19T17:38:40;22;20;14
55549;PMS7003;41397;49.972;18.944;2023-05-19T17:41:42;18;18;13
55549;PMS7003;41397;49.972;18.944;2023-05-19T17:44:43;19;19;15
55549;PMS7003;41397;49.972;18.944;2023-05-19T17:47:48;24;24;16
55549;PMS7003;41397;49.972;18.944;2023-05-19T18:01:46;23;22;16
55549;PMS7003;41397;49.972;18.944;2023-05-19T18:08:51;35;29;17
55549;PMS7003;41397;49.972;18.944;2023-05-19T18:15:50;23;21;12
55549;PMS7003;41397;49.972;18.944;2023-05-19T18:22:18;28;25;15
55549;PMS7003;41397;49.972;18.944;2023-05-19T18:29:14;27;25;16
55549;PMS7003;41397;49.972;18.944;2023-05-19T18:39:11;28;25;18
55549;PMS7003;41397;49.972;18.944;2023-05-19T18:42:13;35;27;15
55549;PMS7003;41397;49.972;18.944;2023-05-19T18:48:52;24;23;14
55549;PMS7003;41397;49.972;18.944;2023-05-19T18:55:08;26;24;16
55549;PMS7003;41397;49.972;18.944;2023-05-19T19:02:08;24;22;16
55549;PMS7003;41397;49.972;18.944;2023-05-19T19:05:16;31;26;16
55549;PMS7003;41397;49.972;18.944;2023-05-19T19:08:17;20;17;11
55549;PMS7003;41397;49.972;18.944;2023-05-19T19:11:19;24;22;14
55549;PMS7003;41397;49.972;18.944;2023-05-19T19:14:22;20;20;14
55549;PMS7003;41397;49.972;18.944;2023-05-19T19:17:27;27;25;15
55549;PMS7003;41397;49.972;18.944;2023-05-19T19:20:45;23;22;14
55549;PMS7003;41397;49.972;18.944;2023-05-19T19:23:53;31;28;16
55549;PMS7003;41397;49.972;18.944;2023-05-19T19:27:09;31;27;18
55549;PMS7003;41397;49.972;18.944;2023-05-19T19:30:34;21;20;14
55549;PMS7003;41397;49.972;18.944;2023-05-19T19:37:09;22;21;13
55549;PMS7003;41397;49.972;18.944;2023-05-19T19:40:15;19;19;13
55549;PMS7003;41397;49.972;18.944;2023-05-19T19:43:19;27;23;14
55549;PMS7003;41397;49.972;18.944;2023-05-19T19:46:21;24;23;16
55549;PMS7003;41397;49.972;18.944;2023-05-19T19:52:44;27;25;17
55549;PMS7003;41397;49.972;18.944;2023-05-19T19:56:01;21;21;14
55549;PMS7003;41397;49.972;18.944;2023-05-19T19:59:06;20;20;14
55549;PMS7003;41397;49.972;18.944;2023-05-19T20:02:24;20;20;12
55549;PMS7003;41397;49.972;18.944;2023-05-19T20:05:26;21;21;14
55549;PMS7003;41397;49.972;18.944;2023-05-19T20:08:27;17;17;13
55549;PMS7003;41397;49.972;18.944;2023-05-19T20:11:29;22;22;12
55549;PMS7003;41397;49.972;18.944;2023-05-19T20:14:31;28;26;17
55549;PMS7003;41397;49.972;18.944;2023-05-19T20:20:54;27;26;17
55549;PMS7003;41397;49.972;18.944;2023-05-19T20:23:56;20;18;12
55549;PMS7003;41397;49.972;18.944;2023-05-19T20:26:58;23;23;15
55549;PMS7003;41397;49.972;18.944;2023-05-19T20:29:59;16;15;11
55549;PMS7003;41397;49.972;18.944;2023-05-19T20:33:02;23;23;16
55549;PMS7003;41397;49.972;18.944;2023-05-19T20:36:04;25;24;17
55549;PMS7003;41397;49.972;18.944;2023-05-19T20:42:22;15;13;9
55549;PMS7003;41397;49.972;18.944;2023-05-19T20:45:23;18;18;12
55549;PMS7003;41397;49.972;18.944;2023-05-19T20:48:25;28;24;16
55549;PMS7003;41397;49.972;18.944;2023-05-19T20:51:28;21;21;14
55549;PMS7003;41397;49.972;18.944;2023-05-19T20:54:36;40;27;17
55549;PMS7003;41397;49.972;18.944;2023-05-19T20:57:52;32;29;17
55549;PMS7003;41397;49.972;18.944;2023-05-19T21:00:54;21;21;12
55549;PMS7003;41397;49.972;18.944;2023-05-19T21:03:57;23;23;16
55549;PMS7003;41397;49.972;18.944;2023-05-19T21:06:59;14;14;8
55549;PMS7003;41397;49.972;18.944;2023-05-19T21:10:01;16;16;11
55549;PMS7003;41397;49.972;18.944;2023-05-19T21:13:02;14;14;11
55549;PMS7003;41397;49.972;18.944;2023-05-19T21:16:04;16;16;11
55549;PMS7003;41397;49.972;18.944;2023-05-19T21:19:06;27;16;13
55549;PMS7003;41397;49.972;18.944;2023-05-19T21:22:08;24;22;14
55549;PMS7003;41397;49.972;18.944;2023-05-19T21:25:10;27;25;15
55549;PMS7003;41397;49.972;18.944;2023-05-19T21:28:14;17;16;12
55549;PMS7003;41397;49.972;18.944;2023-05-19T21:31:18;22;22;16
55549;PMS7003;41397;49.972;18.944;2023-05-19T21:34:22;17;17;14
55549;PMS7003;41397;49.972;18.944;2023-05-19T21:40:47;24;23;15
55549;PMS7003;41397;49.972;18.944;2023-05-19T21:43:48;20;19;13
55549;PMS7003;41397;49.972;18.944;2023-05-19T21:46:49;19;19;13
55549;PMS7003;41397;49.972;18.944;2023-05-19T21:49:51;18;17;13
55549;PMS7003;41397;49.972;18.944;2023-05-19T21:52:55;23;19;13
55549;PMS7003;41397;49.972;18.944;2023-05-19T21:55:56;19;18;13
55549;PMS7003;41397;49.972;18.944;2023-05-19T21:58:58;14;14;12
55549;PMS7003;41397;49.972;18.944;2023-05-19T22:01:59;19;19;15
55549;PMS7003;41397;49.972;18.944;2023-05-19T22:05:03;24;23;16
55549;PMS7003;41397;49.972;18.944;2023-05-19T22:08:04;15;15;12
55549;PMS7003;41397;49.972;18.944;2023-05-19T22:11:06;19;19;12
55549;PMS7003;41397;49.972;18.944;2023-05-19T22:14:09;22;22;14
55549;PMS7003;41397;49.972;18.944;2023-05-19T22:17:10;17;17;14
55549;PMS7003;41397;49.972;18.944;2023-05-19T22:20:12;17;17;12
55549;PMS7003;41397;49.972;18.944;2023-05-19T22:23:13;19;19;14
55549;PMS7003;41397;49.972;18.944;2023-05-19T22:26:15;22;22;15
55549;PMS7003;41397;49.972;18.944;2023-05-19T22:29:18;15;15;13
55549;PMS7003;41397;49.972;18.944;2023-05-19T22:32:20;16;16;11
55549;PMS7003;41397;49.972;18.944;2023-05-19T22:35:22;20;20;13
55549;PMS7003;41397;49.972;18.944;2023-05-19T22:38:26;16;16;13
55549;PMS7003;41397;49.972;18.944;2023-05-19T22:41:27;17;17;14
55549;PMS7003;41397;49.972;18.944;2023-05-19T22:44:29;19;19;12
55549;PMS7003;41397;49.972;18.944;2023-05-19T22:47:30;18;18;13
55549;PMS7003;41397;49.972;18.944;2023-05-19T22:50:32;16;16;12
55549;PMS7003;41397;49.972;18.944;2023-05-19T22:53:34;12;12;10
55549;PMS7003;41397;49.972;18.944;2023-05-19T22:56:36;13;13;10
55549;PMS7003;41397;49.972;18.944;2023-05-19T22:59:37;22;21;14
55549;PMS7003;41397;49.972;18.944;2023-05-19T23:02:41;16;15;12
55549;PMS7003;41397;49.972;18.944;2023-05-19T23:05:43;13;13;6
55549;PMS7003;41397;49.972;18.944;2023-05-19T23:08:44;18;18;15